Waynesville, Georgia
Current Conditions -  °F | °C
As of 3:55 AM on Saturday 22 Nov 2014 (Local Time) from KBQK Reporting Station
NA  
Wind Chill: 55°   Ceiling: NA
Heat Index: 55°   Visibility: 10mi
Dew Point: 52°   Wind: 8mph
Humidity: 88%   Direction: 30°NNE
Pressure: 30.37"   Gusts: NA
Location:  31.23°N, 81.79°W
Report Text: KBQK 220855Z AUTO 03007KT 10SM 13/11 A3037 RMK AO1
Loading
Personal Weather Stations






























Interactive Weather Map New forecast layout! Learn more

10-Day Weather Forecast

Advertisements
Track Severe Weather on mobile